Time;durP1;ratioP1;P1;durP2;ratioP2;P2;SDS_P1;SDS_P2;PMS_P1;PMS_P2;Temp;Humidity;BMP_temperature;BMP_pressure;BME280_temperature;BME280_humidity;BME280_pressure;Samples;Min_cycle;Max_cycle;Signal;HPM_P1;HPM_P2
2022/12/06 00:01:45;;;;;;;10.48;3.70;;;5.60;99.90;;;;;;6197817;23;20020;-95
2022/12/06 00:04:14;;;;;;;10.32;4.38;;;5.60;99.90;;;;;;6193931;23;20047;-94
2022/12/06 00:06:42;;;;;;;10.90;4.30;;;5.60;99.90;;;;;;6217416;23;20062;-95
2022/12/06 00:09:15;;;;;;;11.70;4.20;;;5.60;99.90;;;;;;6193428;23;20016;-94
2022/12/06 00:11:41;;;;;;;12.15;4.45;;;5.60;99.90;;;;;;6219797;23;20012;-94
2022/12/06 00:14:07;;;;;;;11.13;3.85;;;5.60;99.90;;;;;;6192989;23;20008;-94
2022/12/06 00:16:34;;;;;;;11.48;3.80;;;5.70;99.90;;;;;;6195572;23;20039;-95
2022/12/06 00:19:00;;;;;;;16.15;3.83;;;5.60;99.90;;;;;;6193701;23;20091;-94
2022/12/06 00:21:34;;;;;;;11.25;3.28;;;5.60;99.90;;;;;;6194262;23;20063;-94
2022/12/06 00:24:01;;;;;;;8.88;2.70;;;5.60;99.90;;;;;;6218570;23;20046;-94
2022/12/06 00:26:28;;;;;;;10.77;3.35;;;5.60;99.90;;;;;;6193961;23;20030;-94
2022/12/06 00:28:56;;;;;;;9.45;2.70;;;5.60;99.90;;;;;;6193415;23;20012;-94
2022/12/06 00:31:24;;;;;;;10.35;3.25;;;5.60;99.90;;;;;;6195506;23;20012;-94
2022/12/06 00:33:50;;;;;;;11.52;3.10;;;5.50;99.90;;;;;;6194620;23;20023;-93
2022/12/06 00:36:19;;;;;;;12.38;3.67;;;5.60;99.90;;;;;;6219765;23;20019;-93
2022/12/06 00:38:45;;;;;;;10.38;3.10;;;5.60;99.90;;;;;;6218720;23;20035;-94
2022/12/06 00:41:14;;;;;;;13.38;3.75;;;5.60;99.90;;;;;;6193008;23;20091;-93
2022/12/06 00:43:40;;;;;;;10.30;3.15;;;5.50;99.90;;;;;;6193322;23;20100;-94
2022/12/06 00:46:07;;;;;;;11.10;3.03;;;5.50;99.90;;;;;;6192866;23;20426;-95
2022/12/06 00:48:34;;;;;;;11.63;3.60;;;5.50;99.90;;;;;;6192711;23;20048;-94
2022/12/06 00:50:59;;;;;;;8.25;2.97;;;5.50;99.90;;;;;;6217954;23;20015;-94
2022/12/06 00:53:27;;;;;;;11.75;4.47;;;5.50;99.90;;;;;;6193709;23;20087;-95
2022/12/06 00:55:54;;;;;;;13.85;4.07;;;5.40;99.90;;;;;;6218502;23;20013;-94
2022/12/06 00:58:20;;;;;;;8.65;3.40;;;5.60;99.90;;;;;;6194012;23;20012;-95
2022/12/06 01:00:45;;;;;;;12.63;4.03;;;5.50;99.90;;;;;;6194611;23;20043;-94
2022/12/06 01:03:11;;;;;;;12.02;3.85;;;5.50;99.90;;;;;;6203122;23;20012;-95
2022/12/06 01:05:48;;;;;;;11.68;3.97;;;5.50;99.90;;;;;;6257562;23;20008;-95
2022/12/06 01:08:16;;;;;;;11.23;3.92;;;5.50;99.90;;;;;;6199142;23;20039;-94
2022/12/06 01:10:49;;;;;;;11.38;3.47;;;5.50;99.90;;;;;;6246304;23;20020;-95
2022/12/06 01:13:15;;;;;;;11.23;4.00;;;5.50;99.90;;;;;;6195437;23;20110;-95
2022/12/06 01:15:42;;;;;;;9.93;3.55;;;5.40;99.90;;;;;;6220157;23;20012;-95
2022/12/06 01:18:08;;;;;;;11.88;3.67;;;5.50;99.90;;;;;;6194170;23;20050;-94
2022/12/06 01:20:34;;;;;;;14.02;4.47;;;5.50;99.90;;;;;;6221379;23;20012;-94
2022/12/06 01:22:59;;;;;;;12.43;4.10;;;5.50;99.90;;;;;;6204751;23;20023;-94
2022/12/06 01:25:29;;;;;;;10.95;3.95;;;5.50;99.90;;;;;;6208363;22;20004;-94
2022/12/06 01:27:56;;;;;;;11.25;3.65;;;5.50;99.90;;;;;;6217716;23;20035;-94
2022/12/06 01:30:21;;;;;;;9.80;3.25;;;5.50;99.90;;;;;;6243856;23;20050;-94
2022/12/06 01:32:47;;;;;;;10.25;3.47;;;5.50;99.90;;;;;;6217593;23;20087;-93
2022/12/06 01:35:13;;;;;;;12.30;3.83;;;5.50;99.90;;;;;;6242528;23;20015;-94
2022/12/06 01:37:38;;;;;;;11.45;3.72;;;5.50;99.90;;;;;;6216810;23;20047;-95
2022/12/06 01:40:05;;;;;;;12.00;3.95;;;5.50;99.90;;;;;;6217144;22;20004;-94
2022/12/06 01:42:30;;;;;;;12.27;3.67;;;5.50;99.90;;;;;;6214690;23;20027;-94
2022/12/06 01:45:00;;;;;;;11.45;3.25;;;5.50;99.90;;;;;;6217895;22;20000;-95
2022/12/06 01:47:38;;;;;;;12.00;4.20;;;5.50;99.90;;;;;;6218939;22;20062;-94
2022/12/06 01:50:07;;;;;;;12.20;3.58;;;5.50;99.90;;;;;;6218589;23;20004;-94
2022/12/06 01:52:38;;;;;;;10.73;3.20;;;5.50;99.90;;;;;;6242915;22;20020;-94
2022/12/06 01:55:07;;;;;;;10.40;3.05;;;5.50;99.90;;;;;;6217414;22;20027;-93
2022/12/06 01:57:33;;;;;;;10.27;3.28;;;5.50;99.90;;;;;;6244480;23;20005;-95
2022/12/06 02:00:00;;;;;;;8.30;2.88;;;5.50;99.90;;;;;;6219458;22;20004;-93
2022/12/06 02:02:26;;;;;;;12.38;3.05;;;5.50;99.90;;;;;;6244306;22;20000;-94
2022/12/06 02:04:53;;;;;;;9.98;3.10;;;5.50;99.90;;;;;;6218608;22;20011;-95
2022/12/06 02:07:21;;;;;;;9.20;2.95;;;5.50;99.90;;;;;;6244362;23;20046;-94
2022/12/06 02:09:49;;;;;;;7.03;2.35;;;5.50;99.90;;;;;;6218496;23;20031;-93
2022/12/06 02:12:14;;;;;;;8.90;2.50;;;5.50;99.90;;;;;;6270445;22;20016;-94
2022/12/06 02:14:43;;;;;;;7.57;2.47;;;5.50;99.90;;;;;;6244208;23;20034;-94
2022/12/06 02:17:40;;;;;;;9.05;2.92;;;5.40;99.90;;;;;;6200917;23;20490;-95
2022/12/06 02:20:50;;;;;;;7.85;2.40;;;5.40;99.90;;;;;;6221959;23;20047;-94
2022/12/06 02:23:51;;;;;;;8.18;2.60;;;5.40;99.90;;;;;;6220268;23;20016;-94
2022/12/06 02:26:40;;;;;;;6.75;1.80;;;5.40;99.90;;;;;;6209647;23;20036;-93
2022/12/06 02:29:23;;;;;;;7.18;2.05;;;5.40;99.90;;;;;;6209777;23;20077;-94
2022/12/06 02:31:57;;;;;;;6.65;1.90;;;5.40;99.90;;;;;;6207732;23;20013;-95
2022/12/06 02:34:41;;;;;;;8.00;2.40;;;5.40;99.90;;;;;;6216837;23;20000;-94
2022/12/06 02:37:31;;;;;;;7.22;1.98;;;5.40;99.90;;;;;;6238747;23;20028;-93
2022/12/06 02:40:06;;;;;;;7.05;2.30;;;5.40;99.90;;;;;;6220092;23;20031;-94
2022/12/06 02:42:52;;;;;;;6.05;1.60;;;5.40;99.90;;;;;;6221072;22;20035;-94
2022/12/06 02:45:22;;;;;;;5.95;1.90;;;5.40;99.90;;;;;;6220363;23;20088;-95
2022/12/06 02:47:50;;;;;;;5.38;1.88;;;5.40;99.90;;;;;;6233380;23;20016;-94
2022/12/06 02:50:19;;;;;;;7.15;2.05;;;5.40;99.90;;;;;;6196814;23;20061;-94
2022/12/06 02:52:48;;;;;;;5.25;1.67;;;5.40;99.90;;;;;;6196369;23;20019;-94
2022/12/06 02:55:16;;;;;;;3.97;1.45;;;5.40;99.90;;;;;;6194456;23;20020;-93
2022/12/06 02:57:44;;;;;;;7.30;1.98;;;5.40;99.90;;;;;;6219090;23;20039;-94
2022/12/06 03:00:32;;;;;;;5.15;1.60;;;5.40;99.90;;;;;;6194502;23;20012;-94
2022/12/06 03:03:09;;;;;;;6.20;2.15;;;5.30;99.90;;;;;;6225367;23;20026;-94
2022/12/06 03:05:43;;;;;;;5.82;1.80;;;5.30;99.90;;;;;;6207746;23;20012;-94
2022/12/06 03:08:27;;;;;;;6.68;1.90;;;5.30;99.90;;;;;;6195184;23;20004;-95
2022/12/06 03:10:59;;;;;;;5.85;1.90;;;5.30;99.90;;;;;;6194112;23;20016;-95
2022/12/06 03:13:50;;;;;;;6.63;1.75;;;5.30;99.90;;;;;;6219032;23;20035;-95
2022/12/06 03:16:25;;;;;;;4.68;1.50;;;5.30;99.90;;;;;;6194201;23;20018;-94
2022/12/06 03:18:57;;;;;;;6.18;1.73;;;5.30;99.90;;;;;;6219848;23;20020;-95
2022/12/06 03:21:40;;;;;;;6.80;1.70;;;5.30;99.90;;;;;;6196006;23;20022;-95
2022/12/06 03:24:10;;;;;;;3.90;1.40;;;5.30;99.90;;;;;;6193889;23;20016;-94
2022/12/06 03:26:37;;;;;;;4.20;1.50;;;5.30;99.90;;;;;;6221104;23;20137;-95
2022/12/06 03:29:06;;;;;;;6.13;1.60;;;5.20;99.90;;;;;;6193643;23;20012;-95
2022/12/06 03:31:34;;;;;;;3.83;1.40;;;5.20;99.90;;;;;;6220595;23;20055;-94
2022/12/06 03:34:12;;;;;;;3.25;1.20;;;5.20;99.90;;;;;;6195284;23;20023;-94
2022/12/06 03:36:40;;;;;;;5.82;1.40;;;5.20;99.90;;;;;;6221547;23;20044;-94
2022/12/06 03:39:07;;;;;;;5.72;1.40;;;5.10;99.90;;;;;;6194281;23;20027;-95
2022/12/06 03:41:42;;;;;;;6.93;1.98;;;5.20;99.90;;;;;;6195251;23;20015;-94
2022/12/06 03:44:07;;;;;;;4.80;1.70;;;5.10;99.90;;;;;;6219189;23;20087;-95
2022/12/06 03:46:37;;;;;;;7.43;2.08;;;5.10;99.90;;;;;;6221256;23;20027;-94
2022/12/06 03:49:16;;;;;;;7.18;1.73;;;5.10;99.90;;;;;;6194255;23;20008;-95
2022/12/06 03:51:44;;;;;;;8.05;1.90;;;5.10;99.90;;;;;;6194959;23;20020;-94
2022/12/06 03:54:10;;;;;;;6.97;1.80;;;5.10;99.90;;;;;;6194258;23;20063;-95
2022/12/06 03:56:37;;;;;;;7.45;1.75;;;5.10;99.90;;;;;;6195128;23;20015;-94
2022/12/06 03:59:07;;;;;;;5.75;2.03;;;5.10;99.90;;;;;;6195188;23;20016;-94
2022/12/06 04:01:33;;;;;;;9.80;1.80;;;5.10;99.90;;;;;;6199010;23;20020;-94
2022/12/06 04:03:59;;;;;;;6.15;1.77;;;5.10;99.90;;;;;;6197994;23;20012;-94
2022/12/06 04:06:28;;;;;;;7.22;2.10;;;5.10;99.90;;;;;;6220440;23;20059;-94
2022/12/06 04:09:50;;;;;;;5.75;1.75;;;5.10;99.90;;;;;;6244789;23;20008;-94
2022/12/06 04:11:39;;;;;;;7.88;2.00;;;5.10;99.90;;;;;;6244647;23;20004;-94
2022/12/06 04:14:05;;;;;;;7.20;2.17;;;5.10;99.90;;;;;;6219622;22;20006;-94
2022/12/06 04:19:15;;;;;;;7.32;2.45;;;5.10;99.90;;;;;;6245692;22;20008;-94
2022/12/06 04:24:24;;;;;;;6.38;2.28;;;5.10;99.90;;;;;;6271035;22;20012;-94
2022/12/06 04:28:40;;;;;;;7.15;2.13;;;5.00;99.90;;;;;;6220597;22;20008;-94
2022/12/06 04:40:48;;;;;;;7.65;2.10;;;4.80;99.90;;;;;;6244828;22;20062;-94
2022/12/06 04:45:57;;;;;;;7.53;2.17;;;4.80;99.90;;;;;;6257959;23;20417;-94
2022/12/06 04:48:23;;;;;;;7.82;2.20;;;4.80;99.90;;;;;;6198179;23;20015;-94
2022/12/06 04:50:49;;;;;;;9.32;2.60;;;4.80;99.90;;;;;;6197638;23;20062;-95
2022/12/06 04:53:15;;;;;;;9.20;2.60;;;4.80;99.90;;;;;;6197942;23;20012;-95
2022/12/06 04:55:48;;;;;;;7.47;2.20;;;4.80;99.90;;;;;;6196961;23;20008;-95
2022/12/06 04:58:14;;;;;;;7.00;2.03;;;4.80;99.90;;;;;;6223046;23;20019;-95
2022/12/06 05:00:43;;;;;;;8.88;2.42;;;4.80;99.90;;;;;;6194975;23;20014;-95
2022/12/06 05:03:10;;;;;;;11.10;2.58;;;4.80;99.90;;;;;;6198696;23;20023;-94
2022/12/06 05:05:36;;;;;;;10.27;2.90;;;4.80;99.90;;;;;;6233780;23;20027;-95
2022/12/06 05:08:02;;;;;;;11.25;2.72;;;4.80;99.90;;;;;;6199915;23;20012;-94
2022/12/06 05:10:27;;;;;;;7.35;2.47;;;4.80;99.90;;;;;;6193935;23;20023;-94
2022/12/06 05:12:53;;;;;;;9.07;2.63;;;4.80;99.90;;;;;;6219396;23;20008;-95
2022/12/06 05:15:19;;;;;;;8.07;2.55;;;4.80;99.90;;;;;;6194815;23;20012;-95
2022/12/06 05:17:44;;;;;;;8.90;2.40;;;4.70;99.90;;;;;;6194768;23;20468;-94
2022/12/06 05:20:13;;;;;;;8.27;2.30;;;4.70;99.90;;;;;;6194584;23;20016;-94
2022/12/06 05:22:39;;;;;;;5.88;2.10;;;4.60;99.90;;;;;;6219453;23;20020;-94
2022/12/06 05:25:05;;;;;;;8.63;2.50;;;4.60;99.90;;;;;;6193199;23;20016;-94
2022/12/06 05:27:30;;;;;;;7.68;2.40;;;4.50;99.90;;;;;;6193896;23;20372;-94
2022/12/06 05:29:57;;;;;;;8.65;2.20;;;4.40;99.90;;;;;;6193966;23;20079;-95
2022/12/06 05:32:23;;;;;;;7.82;2.40;;;4.40;99.90;;;;;;6219643;23;20009;-95
2022/12/06 05:34:49;;;;;;;6.85;2.15;;;4.40;99.90;;;;;;6219699;23;20465;-95
2022/12/06 05:37:14;;;;;;;10.48;2.25;;;4.40;99.90;;;;;;6219772;23;20012;-94
2022/12/06 05:39:40;;;;;;;7.18;2.17;;;4.30;99.90;;;;;;6194110;23;20469;-95
2022/12/06 05:42:05;;;;;;;6.82;2.00;;;4.30;99.90;;;;;;6218762;23;20020;-94
2022/12/06 05:44:31;;;;;;;8.00;2.47;;;4.30;99.90;;;;;;6219362;23;20023;-94
2022/12/06 05:46:57;;;;;;;8.45;2.50;;;4.30;99.90;;;;;;6194880;23;20026;-95
2022/12/06 05:49:22;;;;;;;7.40;2.40;;;4.30;99.90;;;;;;6195222;23;20054;-96
2022/12/06 05:51:48;;;;;;;6.65;1.92;;;4.30;99.90;;;;;;6219536;23;20060;-94
2022/12/06 05:54:13;;;;;;;7.85;2.25;;;4.30;99.90;;;;;;6194739;23;20008;-94
2022/12/06 05:56:39;;;;;;;8.15;2.10;;;4.30;99.90;;;;;;6194824;23;20012;-94
2022/12/06 05:59:05;;;;;;;9.52;2.35;;;4.30;99.90;;;;;;6194158;23;20044;-95
2022/12/06 06:01:31;;;;;;;6.30;2.33;;;4.30;99.90;;;;;;6195282;23;20050;-95
2022/12/06 06:04:00;;;;;;;6.40;2.05;;;4.20;99.90;;;;;;6219176;23;20004;-94
2022/12/06 06:06:27;;;;;;;7.20;2.47;;;4.30;99.90;;;;;;6194225;23;20004;-95
2022/12/06 06:08:53;;;;;;;9.32;2.67;;;4.30;99.90;;;;;;6193604;23;20045;-95
2022/12/06 06:11:19;;;;;;;6.50;2.15;;;4.20;99.90;;;;;;6193922;23;20526;-94
2022/12/06 06:13:45;;;;;;;7.97;2.35;;;4.20;99.90;;;;;;6193912;23;20063;-95
2022/12/06 06:16:11;;;;;;;7.90;2.22;;;4.20;99.90;;;;;;6195145;23;20067;-94
2022/12/06 06:18:36;;;;;;;8.38;2.20;;;4.20;99.90;;;;;;6202924;23;20020;-94
2022/12/06 06:21:02;;;;;;;8.07;2.22;;;4.30;99.90;;;;;;6205586;23;20023;-93
2022/12/06 06:23:29;;;;;;;8.95;2.53;;;4.20;99.90;;;;;;6197383;23;20043;-95
2022/12/06 06:25:55;;;;;;;7.15;2.55;;;4.30;99.90;;;;;;6249346;23;20004;-94
2022/12/06 06:28:21;;;;;;;7.15;2.28;;;4.30;99.90;;;;;;6221252;23;20516;-93
2022/12/06 06:30:47;;;;;;;6.60;2.38;;;4.30;99.90;;;;;;6195763;23;20008;-95
2022/12/06 06:33:13;;;;;;;7.82;2.22;;;4.20;99.90;;;;;;6196320;23;20078;-94
2022/12/06 06:35:39;;;;;;;8.18;2.55;;;4.20;99.90;;;;;;6195669;23;20034;-95
2022/12/06 06:38:06;;;;;;;7.10;2.20;;;4.20;99.90;;;;;;6195113;23;20012;-94
2022/12/06 06:40:32;;;;;;;7.30;2.42;;;4.20;99.90;;;;;;6196006;23;20012;-95
2022/12/06 06:43:16;;;;;;;7.60;2.50;;;4.20;99.90;;;;;;6220675;23;20011;-94
2022/12/06 06:46:02;;;;;;;7.78;2.85;;;4.20;99.90;;;;;;6220859;23;20020;-95
2022/12/06 06:48:30;;;;;;;7.25;2.38;;;4.20;99.90;;;;;;6247678;23;20340;-94
2022/12/06 06:51:00;;;;;;;7.68;2.58;;;4.20;99.90;;;;;;6194111;23;20008;-94
2022/12/06 06:53:26;;;;;;;7.80;2.57;;;4.20;99.90;;;;;;6220981;23;20074;-94
2022/12/06 06:55:52;;;;;;;7.93;2.80;;;4.10;99.90;;;;;;6220387;23;20337;-94
2022/12/06 06:58:18;;;;;;;10.80;3.03;;;4.20;99.90;;;;;;6195214;23;20058;-93
2022/12/06 07:00:44;;;;;;;8.07;3.10;;;4.10;99.90;;;;;;6195087;23;20020;-94
2022/12/06 07:03:19;;;;;;;8.75;2.63;;;4.10;99.90;;;;;;6222455;23;20098;-94
2022/12/06 07:05:54;;;;;;;9.45;2.92;;;4.10;99.90;;;;;;6231739;23;20012;-94
2022/12/06 07:08:20;;;;;;;10.60;3.42;;;4.00;99.90;;;;;;6228487;23;20042;-95
2022/12/06 07:10:47;;;;;;;10.55;3.10;;;3.90;99.90;;;;;;6194246;23;20009;-91
2022/12/06 07:13:17;;;;;;;7.68;2.75;;;3.90;99.90;;;;;;6194171;23;20008;-91
2022/12/06 07:15:43;;;;;;;8.25;3.30;;;3.80;99.90;;;;;;6220112;23;20036;-94
2022/12/06 07:18:09;;;;;;;8.18;2.70;;;3.80;99.90;;;;;;6220246;23;20016;-94
2022/12/06 07:20:35;;;;;;;7.20;2.72;;;3.70;99.90;;;;;;6220834;23;20058;-94
2022/12/06 07:23:00;;;;;;;9.48;3.45;;;3.70;99.90;;;;;;6219931;23;20008;-93
2022/12/06 07:25:26;;;;;;;9.93;4.05;;;3.70;99.90;;;;;;6194416;23;20508;-93
2022/12/06 07:27:52;;;;;;;11.27;4.30;;;3.70;99.90;;;;;;6194562;23;20015;-93
2022/12/06 07:30:18;;;;;;;10.63;3.75;;;3.60;99.90;;;;;;6219600;23;20072;-94
2022/12/06 07:32:43;;;;;;;9.98;3.55;;;3.60;99.90;;;;;;6219880;23;20016;-93
2022/12/06 07:35:09;;;;;;;10.55;3.60;;;3.50;99.90;;;;;;6225039;23;20032;-94
2022/12/06 07:37:35;;;;;;;10.23;3.72;;;3.40;99.90;;;;;;6242501;22;20036;-94
2022/12/06 07:40:01;;;;;;;8.85;3.55;;;3.40;99.90;;;;;;6243701;23;20008;-94
2022/12/06 07:45:13;;;;;;;9.07;3.38;;;3.30;99.90;;;;;;6244239;22;20008;-93
2022/12/06 07:47:42;;;;;;;9.52;2.72;;;3.20;99.90;;;;;;6220489;22;20009;-93
2022/12/06 07:50:11;;;;;;;8.43;3.17;;;3.20;99.90;;;;;;6220286;22;20028;-93
2022/12/06 07:52:37;;;;;;;9.40;3.15;;;3.20;99.90;;;;;;6220111;22;20012;-93
2022/12/06 07:55:05;;;;;;;7.10;2.72;;;3.10;99.90;;;;;;6220622;22;20024;-94
2022/12/06 07:57:31;;;;;;;8.73;2.95;;;3.00;99.90;;;;;;6244481;23;20020;-94
2022/12/06 07:59:57;;;;;;;8.05;3.03;;;2.90;99.90;;;;;;6219498;22;20020;-93
2022/12/06 08:02:24;;;;;;;10.73;4.07;;;2.90;99.90;;;;;;6245584;22;19996;-93
2022/12/06 08:04:50;;;;;;;10.13;3.35;;;2.90;99.90;;;;;;6244370;22;20008;-93
2022/12/06 08:07:16;;;;;;;9.18;3.38;;;3.00;99.90;;;;;;6220123;22;20003;-92
2022/12/06 08:09:42;;;;;;;10.82;3.22;;;2.90;99.90;;;;;;6244902;23;20008;-90
2022/12/06 08:12:08;;;;;;;8.52;3.05;;;2.90;99.90;;;;;;6252533;23;20074;-88
2022/12/06 08:14:34;;;;;;;7.95;3.13;;;3.00;99.90;;;;;;6219080;23;20015;-91
2022/12/06 08:17:00;;;;;;;9.65;3.00;;;3.00;99.90;;;;;;6218730;23;20141;-83
2022/12/06 08:19:26;;;;;;;9.68;2.92;;;2.90;99.90;;;;;;6215649;23;20433;-87
2022/12/06 08:21:52;;;;;;;6.40;2.50;;;3.00;99.90;;;;;;6241477;23;20046;-87
2022/12/06 08:24:18;;;;;;;7.75;2.80;;;3.00;99.90;;;;;;6215713;23;20441;-87
2022/12/06 08:26:44;;;;;;;8.68;3.08;;;3.00;99.90;;;;;;6215616;23;20048;-86
2022/12/06 08:29:09;;;;;;;10.35;3.22;;;3.00;99.90;;;;;;6214685;23;20023;-87
2022/12/06 08:31:35;;;;;;;9.98;3.97;;;3.10;99.90;;;;;;6242427;23;20008;-86
2022/12/06 08:34:02;;;;;;;8.73;3.58;;;3.20;99.90;;;;;;6241089;23;20009;-86
2022/12/06 08:36:27;;;;;;;10.70;3.50;;;3.20;99.90;;;;;;6215193;23;20016;-86
2022/12/06 08:38:54;;;;;;;8.23;3.22;;;3.20;99.90;;;;;;6213883;23;20516;-86
2022/12/06 08:44:08;;;;;;;10.35;4.18;;;3.30;99.90;;;;;;6213696;23;20024;-84
2022/12/06 08:46:34;;;;;;;8.13;3.40;;;3.30;99.90;;;;;;6214510;23;20078;-86
2022/12/06 08:49:00;;;;;;;10.50;3.72;;;3.40;99.90;;;;;;6214765;23;20016;-85
2022/12/06 08:51:26;;;;;;;11.65;4.35;;;3.40;99.90;;;;;;6215584;23;20138;-83
2022/12/06 08:53:54;;;;;;;11.27;4.45;;;3.50;99.90;;;;;;6241830;23;20103;-85
2022/12/06 08:56:20;;;;;;;8.55;3.95;;;3.50;99.90;;;;;;6241628;23;20070;-88
2022/12/06 08:58:46;;;;;;;9.00;3.55;;;3.60;99.90;;;;;;6215248;23;20019;-88
2022/12/06 09:01:18;;;;;;;10.65;3.47;;;3.60;99.90;;;;;;6243790;23;20012;-88
2022/12/06 09:03:44;;;;;;;8.38;3.25;;;3.60;99.90;;;;;;6216977;23;20012;-88
2022/12/06 09:06:10;;;;;;;7.15;2.97;;;3.70;99.90;;;;;;6254224;23;20024;-89
2022/12/06 09:08:37;;;;;;;10.40;3.40;;;3.70;99.90;;;;;;6252060;23;20008;-89
2022/12/06 09:11:04;;;;;;;10.95;2.97;;;3.80;99.90;;;;;;6215697;23;20054;-88
2022/12/06 09:13:30;;;;;;;10.27;3.22;;;3.90;99.90;;;;;;6216776;23;20016;-90
2022/12/06 09:15:56;;;;;;;8.77;2.90;;;4.00;99.90;;;;;;6216045;23;20012;-89
2022/12/06 09:18:22;;;;;;;7.95;3.20;;;4.10;99.90;;;;;;6242627;23;20358;-86
2022/12/06 09:20:48;;;;;;;8.52;3.22;;;4.10;99.90;;;;;;6214791;23;20020;-87
2022/12/06 09:23:13;;;;;;;9.60;3.40;;;4.20;99.90;;;;;;6215631;23;20016;-87
2022/12/06 09:25:42;;;;;;;9.02;3.30;;;4.30;99.90;;;;;;6216807;23;20460;-87
2022/12/06 09:28:09;;;;;;;9.07;3.25;;;4.30;99.90;;;;;;6215022;23;20046;-84
2022/12/06 09:30:34;;;;;;;9.90;3.35;;;4.30;99.90;;;;;;6216137;23;20350;-88
2022/12/06 09:33:00;;;;;;;8.13;3.00;;;4.30;99.90;;;;;;6243777;23;20008;-96
2022/12/06 09:35:28;;;;;;;12.68;4.10;;;4.40;99.90;;;;;;6199255;23;20468;-96
2022/12/06 09:37:53;;;;;;;10.35;3.95;;;4.40;99.90;;;;;;6220128;23;20008;-95
2022/12/06 09:41:05;;;;;;;10.10;4.10;;;4.50;99.90;;;;;;6196316;23;20059;-95
2022/12/06 09:44:00;;;;;;;;;;;4.70;99.90;;;;;;6193516;23;20012;-95
2022/12/06 09:46:54;;;;;;;7.28;2.70;;;4.80;99.90;;;;;;6197947;23;19915;-95
2022/12/06 09:49:38;;;;;;;8.43;2.90;;;4.90;99.90;;;;;;6218098;23;20012;-94
2022/12/06 09:52:14;;;;;;;7.85;3.05;;;5.00;99.90;;;;;;6192542;23;20468;-94
2022/12/06 09:55:03;;;;;;;9.55;3.00;;;5.10;99.90;;;;;;6218523;23;20337;-92
2022/12/06 09:57:48;;;;;;;8.10;2.75;;;5.20;99.90;;;;;;6223465;23;20051;-94
2022/12/06 10:00:21;;;;;;;7.03;2.88;;;5.20;99.90;;;;;;6194153;23;20048;-95
2022/12/06 10:02:55;;;;;;;7.47;2.30;;;5.30;99.90;;;;;;6197050;23;20210;-93
2022/12/06 10:05:49;;;;;;;8.38;2.30;;;5.30;99.90;;;;;;6192319;23;20392;-88
2022/12/06 10:08:32;;;;;;;8.57;2.90;;;5.40;99.90;;;;;;6241922;23;20012;-86
2022/12/06 10:11:42;;;;;;;9.00;3.08;;;5.40;99.90;;;;;;6242537;23;20381;-83
2022/12/06 10:14:28;;;;;;;11.63;3.25;;;5.40;99.90;;;;;;6214955;23;20052;-85
2022/12/06 10:17:04;;;;;;;7.25;2.55;;;5.50;99.90;;;;;;6215706;23;20012;-85
2022/12/06 10:19:48;;;;;;;8.55;2.67;;;5.50;99.90;;;;;;6214989;23;20020;-83
2022/12/06 10:22:33;;;;;;;7.55;1.85;;;5.40;99.90;;;;;;6215017;23;20118;-84
2022/12/06 10:25:08;;;;;;;12.77;3.10;;;5.40;99.90;;;;;;6215819;23;20074;-86
2022/12/06 10:27:37;;;;;;;6.88;2.45;;;5.40;99.90;;;;;;6214313;23;20094;-86
2022/12/06 10:30:09;;;;;;;5.30;1.95;;;5.30;99.90;;;;;;6214460;23;20843;-86
2022/12/06 10:32:47;;;;;;;7.60;2.75;;;5.20;99.90;;;;;;6216396;23;20012;-85
2022/12/06 10:35:32;;;;;;;7.20;3.20;;;5.10;99.90;;;;;;6216721;23;20047;-86
2022/12/06 10:38:24;;;;;;;9.18;2.75;;;5.10;99.90;;;;;;6190328;23;20319;-85
2022/12/06 10:41:14;;;;;;;7.07;2.20;;;5.10;99.90;;;;;;6190443;23;20023;-86
2022/12/06 10:43:57;;;;;;;8.10;2.78;;;5.10;99.90;;;;;;6214719;23;20031;-84
2022/12/06 10:49:38;;;;;;;9.68;3.03;;;5.20;99.90;;;;;;6215471;23;20016;-84
2022/12/06 10:52:23;;;;;;;8.68;2.65;;;5.20;99.90;;;;;;6214388;23;20028;-84
2022/12/06 10:55:10;;;;;;;8.48;2.40;;;5.20;99.90;;;;;;6215555;23;20012;-84
2022/12/06 10:57:55;;;;;;;7.68;2.42;;;5.20;99.90;;;;;;6242734;23;20023;-85
2022/12/06 11:00:24;;;;;;;7.35;2.50;;;5.30;99.90;;;;;;6215964;23;20018;-86
2022/12/06 11:03:02;;;;;;;8.02;2.70;;;5.40;99.90;;;;;;6217041;23;20062;-85
2022/12/06 11:05:49;;;;;;;7.97;2.83;;;5.40;99.90;;;;;;6218232;23;20039;-85
2022/12/06 11:08:25;;;;;;;9.15;3.20;;;5.60;99.90;;;;;;6217376;23;20087;-85
2022/12/06 11:10:53;;;;;;;5.72;2.42;;;5.70;99.90;;;;;;6244444;23;20012;-84
2022/12/06 11:13:29;;;;;;;5.88;2.22;;;5.80;99.90;;;;;;6217001;23;20012;-84
2022/12/06 11:16:08;;;;;;;5.97;2.33;;;5.90;99.90;;;;;;6216509;23;20031;-86
2022/12/06 11:18:34;;;;;;;6.75;2.20;;;6.00;99.90;;;;;;6217119;23;20406;-85
2022/12/06 11:21:47;;;;;;;5.53;2.08;;;6.00;99.90;;;;;;6214632;23;20149;-83
2022/12/06 11:24:21;;;;;;;7.50;2.33;;;6.10;99.90;;;;;;6150752;23;20335;-83
2022/12/06 11:26:59;;;;;;;7.00;2.13;;;6.10;99.90;;;;;;6125798;23;20021;-83
2022/12/06 11:29:24;;;;;;;7.03;2.35;;;6.10;99.90;;;;;;6151056;23;20020;-85
2022/12/06 11:31:57;;;;;;;5.40;2.40;;;6.20;99.90;;;;;;6150626;23;20017;-85
2022/12/06 11:34:27;;;;;;;9.60;2.92;;;6.20;99.90;;;;;;6124264;23;20024;-84
2022/12/06 11:36:55;;;;;;;7.13;2.65;;;6.30;99.90;;;;;;6124845;23;20022;-84
2022/12/06 11:39:22;;;;;;;6.07;2.22;;;6.30;99.90;;;;;;6125367;23;20079;-85
2022/12/06 11:41:52;;;;;;;8.18;2.60;;;6.30;99.90;;;;;;6099237;23;20119;-85
2022/12/06 11:44:21;;;;;;;7.47;2.77;;;6.20;99.90;;;;;;6125327;23;20029;-85
2022/12/06 11:46:57;;;;;;;9.13;2.60;;;6.10;99.90;;;;;;6150126;23;20665;-85
2022/12/06 11:49:35;;;;;;;7.32;2.00;;;6.10;99.90;;;;;;6125163;23;20025;-85
2022/12/06 11:52:07;;;;;;;7.15;2.10;;;6.10;99.90;;;;;;6125645;23;20098;-83
2022/12/06 11:54:42;;;;;;;8.10;2.40;;;6.10;99.90;;;;;;6161955;23;20024;-83
2022/12/06 11:57:20;;;;;;;5.38;2.28;;;6.10;99.90;;;;;;6214995;23;20039;-85
2022/12/06 12:00:16;;;;;;;8.20;3.10;;;6.20;99.90;;;;;;6190874;23;20012;-83
2022/12/06 12:02:48;;;;;;;6.80;2.08;;;6.30;99.90;;;;;;6216691;23;20016;-84
2022/12/06 12:05:21;;;;;;;6.05;2.15;;;6.30;99.90;;;;;;6216114;23;20066;-84
2022/12/06 12:08:18;;;;;;;5.55;2.03;;;6.50;99.90;;;;;;6215027;23;20069;-84
2022/12/06 12:10:56;;;;;;;5.35;1.90;;;6.50;99.90;;;;;;6215706;23;20042;-85
2022/12/06 12:13:44;;;;;;;4.50;1.67;;;6.50;99.90;;;;;;6191343;23;20016;-84
2022/12/06 12:16:12;;;;;;;4.88;1.73;;;6.60;99.90;;;;;;6242980;23;20432;-85
2022/12/06 12:19:00;;;;;;;6.18;2.20;;;6.60;99.90;;;;;;6214840;23;20016;-86
2022/12/06 12:21:34;;;;;;;5.68;2.00;;;6.60;99.90;;;;;;6215484;23;20031;-86
2022/12/06 12:24:00;;;;;;;4.18;1.88;;;6.60;99.90;;;;;;6243526;23;20004;-90
2022/12/06 12:26:38;;;;;;;4.50;1.70;;;6.70;99.90;;;;;;6248346;23;20388;-94
2022/12/06 12:29:07;;;;;;;4.53;1.70;;;6.70;99.90;;;;;;6219495;23;20047;-94
2022/12/06 12:31:53;;;;;;;6.53;2.22;;;6.70;99.90;;;;;;6194547;23;20012;-94
2022/12/06 12:34:28;;;;;;;6.90;1.85;;;6.70;99.90;;;;;;6220033;23;20012;-93
2022/12/06 12:36:57;;;;;;;6.22;1.92;;;6.80;99.90;;;;;;6219658;23;20012;-93
2022/12/06 12:39:45;;;;;;;6.15;1.77;;;6.70;99.90;;;;;;6194052;23;20012;-94
2022/12/06 12:42:31;;;;;;;6.25;1.90;;;6.70;99.90;;;;;;6219333;23;20091;-94
2022/12/06 12:45:00;;;;;;;5.50;1.70;;;6.70;99.90;;;;;;6195284;23;20346;-93
2022/12/06 12:47:30;;;;;;;7.47;2.20;;;6.70;99.90;;;;;;6194658;23;20051;-94
2022/12/06 12:50:02;;;;;;;7.82;2.45;;;6.70;99.90;;;;;;6192675;23;20092;-92
2022/12/06 12:52:40;;;;;;;8.60;2.47;;;6.70;99.90;;;;;;6194816;23;20043;-93
2022/12/06 12:55:11;;;;;;;6.00;1.92;;;6.60;99.90;;;;;;6244914;23;20517;-92
2022/12/06 12:57:37;;;;;;;5.57;1.80;;;6.60;99.90;;;;;;6194223;23;20037;-93
2022/12/06 13:00:04;;;;;;;6.82;2.15;;;6.60;99.90;;;;;;6193990;23;20107;-94
2022/12/06 13:02:33;;;;;;;8.07;2.55;;;6.50;99.90;;;;;;6198073;23;20022;-92
2022/12/06 13:05:01;;;;;;;8.40;2.80;;;6.40;99.90;;;;;;6230442;23;20012;-92
2022/12/06 13:07:40;;;;;;;5.97;2.00;;;6.40;99.90;;;;;;6229261;23;20013;-94
2022/12/06 13:10:32;;;;;;;6.05;2.10;;;6.50;99.90;;;;;;6193597;23;20012;-93
2022/12/06 13:13:02;;;;;;;7.63;2.60;;;6.50;99.90;;;;;;6193710;23;20106;-93
2022/12/06 13:15:35;;;;;;;6.72;2.10;;;6.50;99.90;;;;;;6194171;23;20008;-94
2022/12/06 13:18:12;;;;;;;5.80;1.92;;;6.60;99.90;;;;;;6193422;23;20015;-94
2022/12/06 13:20:39;;;;;;;8.88;1.90;;;6.60;99.90;;;;;;6193967;23;20047;-94
2022/12/06 13:23:14;;;;;;;5.18;2.00;;;6.70;99.90;;;;;;6193164;23;20020;-94
2022/12/06 13:25:45;;;;;;;6.95;2.03;;;6.70;99.90;;;;;;6193202;23;20040;-93
2022/12/06 13:28:18;;;;;;;5.20;2.00;;;6.70;99.90;;;;;;6219395;23;20012;-93
2022/12/06 13:30:45;;;;;;;5.80;1.50;;;6.70;99.90;;;;;;6219107;23;20039;-93
2022/12/06 13:33:24;;;;;;;8.25;1.85;;;6.80;99.90;;;;;;6220504;23;20008;-94
2022/12/06 13:36:04;;;;;;;5.55;1.65;;;6.80;99.90;;;;;;6201764;23;20040;-91
2022/12/06 13:38:31;;;;;;;5.50;1.60;;;6.80;99.90;;;;;;6262762;23;20083;-92
2022/12/06 13:41:05;;;;;;;6.22;1.85;;;6.80;99.90;;;;;;6225752;23;20089;-93
2022/12/06 13:43:31;;;;;;;5.60;1.80;;;6.70;99.90;;;;;;6194325;23;20012;-93
2022/12/06 13:46:06;;;;;;;4.38;1.40;;;6.70;99.90;;;;;;6219363;23;20046;-94